Latest Weather Observations for Trepell

IDQ60801

Issued at 1:02 am EST Tuesday 17 January 2017 (issued every 30 minutes, with the page automatically refreshed every 10 minutes)

About weather observations | Map of weather stations | Latest weather observations for QLD | Other Formats
Station Details ID: 037036 Name: TREPELL AIRPORT Lat: -21.84 Lon: 140.89 Height: 266.2 m
Data from the previous 72 hours. | See also: Recent months at Trepell
Date/Time
EST
Temp
°C
App
Temp
°C
Dew
Point
°C
Rel
Hum
%
Delta-T
°C
Wind Press
QNH
hPa
Press
MSL
hPa
Rain since
9am
mm
Dir  Spd
km/h
Gust
km/h
Spd
kts
Gust
kts
17/12:30am 25.1 25.6 22.0 83 2.1 NNE 22 28 12 15 1009.6 1007.5 0.0
17/12:00am 25.3 26.0 22.2 83 2.1 N 22 32 12 17 1009.8 1007.7 0.0
 
Date/Time
EST
Temp
°C
App
Temp
°C
Dew
Point
°C
Rel
Hum
%
Delta-T
°C
Wind Press
QNH
hPa
Press
MSL
hPa
Rain since
9am
mm
Dir  Spd
km/h
Gust
km/h
Spd
kts
Gust
kts
16/11:30pm 25.4 25.7 22.3 83 2.1 NNE 24 30 13 16 1010.0 1007.9 0.0
16/11:00pm 26.0 26.6 22.1 79 2.6 NNE 22 30 12 16 1010.0 1007.9 0.0
16/10:30pm 26.2 26.4 22.1 78 2.8 NNE 24 33 13 18 1009.8 1007.7 0.0
16/10:00pm 27.1 27.7 22.1 74 3.4 NNE 22 30 12 16 1009.6 1007.5 0.0
16/09:30pm 27.2 28.6 21.9 73 3.6 NNE 17 19 9 10 1009.1 1007.0 0.0
16/09:00pm 27.7 30.0 22.0 71 3.9 NNE 13 17 7 9 1008.8 1006.7 0.0
16/08:30pm 28.2 29.7 22.0 69 4.2 NE 17 20 9 11 1008.6 1006.5 0.0
16/08:00pm 28.5 30.8 22.0 68 4.4 NE 13 20 7 11 1008.1 1005.9 0.0
16/07:30pm 29.0 30.2 21.5 64 5.1 NE 17 20 9 11 1007.5 1005.4 0.0
16/07:00pm 29.2 30.9 21.7 64 5.1 ENE 15 20 8 11 1007.5 1005.4 0.0
16/06:30pm 29.2 29.7 21.2 62 5.4 ENE 20 30 11 16 1007.3 1005.2 0.0
16/06:00pm 29.7 29.8 21.9 63 5.3 ENE 24 35 13 19 1007.0 1004.9 0.0
16/05:30pm 31.5 30.7 20.8 53 7.2 NNE 26 35 14 19 1006.3 1004.2 0.0
16/05:00pm 32.9 33.4 21.1 50 8.0 NNE 20 28 11 15 1005.9 1003.8 0.0
16/04:30pm 32.9 33.8 20.1 47 8.6 NNE 15 28 8 15 1005.7 1003.6 0.0
16/04:00pm 32.9 34.1 21.4 50 7.9 NNE 17 24 9 13 1006.0 1003.9 0.0
16/03:30pm 32.7 33.3 20.2 47 8.4 NNE 17 26 9 14 1006.2 1004.1 0.0
16/03:00pm 32.2 32.7 20.8 51 7.7 N 19 26 10 14 1006.7 1004.6 0.0
16/02:30pm 32.4 33.7 21.6 53 7.4 N 17 24 9 13 1007.0 1004.9 0.0
16/02:00pm 31.9 32.5 21.1 52 7.3 NNE 19 30 10 16 1007.3 1005.2 0.0
16/01:30pm 32.1 33.0 21.6 53 7.2 NE 19 26 10 14 1007.6 1005.5 0.0
16/01:00pm 31.7 32.9 21.5 54 7.0 NE 17 26 9 14 1008.1 1005.9 0.0
16/12:30pm 31.1 31.7 21.0 55 6.8 NNE 19 28 10 15 1008.3 1006.1 0.0
16/12:00pm 29.9 30.3 20.7 57 6.2 NNE 19 28 10 15 1008.5 1006.4 0.0
16/11:30am 29.3 30.1 21.3 62 5.4 NNE 19 28 10 15 1008.9 1006.8 0.0
16/11:00am 29.9 30.9 22.1 63 5.3 NNE 20 28 11 15 1008.9 1006.8 0.0
16/10:30am 28.8 28.7 20.8 62 5.4 NNE 22 32 12 17 1008.9 1006.8 0.0
16/10:00am 28.4 29.0 21.4 66 4.7 NNE 20 30 11 16 1008.8 1006.7 0.0
16/09:30am 28.1 29.9 22.6 72 3.8 NNE 17 22 9 12 1008.6 1006.5 0.0
16/09:00am 27.5 29.9 22.2 73 3.6 NE 13 17 7 9 1008.5 1006.4 6.2
16/08:30am 25.9 28.2 22.0 79 2.6 NE 13 17 7 9 1008.5 1006.4 6.2
16/08:00am 25.0 26.9 21.3 80 2.5 NNE 13 19 7 10 1008.1 1005.9 6.2
16/07:30am 24.2 26.2 21.5 85 1.8 NE 13 17 7 9 1008.3 1006.1 6.2
16/07:00am 23.6 25.9 21.3 87 1.5 ENE 11 15 6 8 1008.2 1006.0 6.2
16/06:30am 23.1 26.1 21.2 89 1.3 ENE 7 11 4 6 1007.9 1005.8 6.2
16/06:00am 22.9 25.4 21.0 89 1.3 E 9 11 5 6 1007.3 1005.2 6.2
16/05:30am 22.9 26.0 21.0 89 1.3 NE 6 7 3 4 1006.5 1004.4 6.2
16/05:00am 23.1 24.8 21.0 88 1.4 NNE 13 17 7 9 1006.4 1004.3 6.2
16/04:30am 23.4 24.3 20.9 86 1.7 NNE 17 20 9 11 1006.6 1004.5 6.2
16/04:00am 23.6 24.2 21.1 86 1.7 N 19 24 10 13 1006.5 1004.4 6.2
16/03:33am 23.0 22.0 20.5 86 1.6 N 26 35 14 19 1006.8 1004.7 6.2
16/03:30am 23.0 22.0 20.5 86 1.6 NNE 26 35 14 19 1006.8 1004.7 6.2
16/03:09am 24.0 21.9 19.7 77 2.8 NE 30 61 16 33 1007.2 1005.1 6.2
16/03:07am 25.2 25.3 21.9 82 2.2 NE 24 43 13 23 1007.2 1005.1 6.2
16/03:00am 25.7 28.2 23.2 86 1.7 NE 15 20 8 11 1007.1 1005.0 6.2
16/02:30am 25.4 29.7 23.3 88 1.4 N 6 7 3 4 1006.9 1004.8 6.2
16/02:00am 25.3 29.4 23.2 88 1.4 NNE 7 9 4 5 1006.9 1004.8 6.2
16/01:30am 25.4 29.0 23.1 87 1.6 NNE 9 11 5 6 1007.2 1005.1 6.2
16/01:00am 25.4 29.0 23.1 87 1.6 NE 9 13 5 7 1007.4 1005.3 6.2
16/12:30am 25.6 29.6 23.1 86 1.7 ESE 7 11 4 6 1007.9 1005.8 6.2
16/12:00am 25.5 30.4 23.0 86 1.7 SSE 2 6 1 3 1008.5 1006.4 6.2
 
Date/Time
EST
Temp
°C
App
Temp
°C
Dew
Point
°C
Rel
Hum
%
Delta-T
°C
Wind Press
QNH
hPa
Press
MSL
hPa
Rain since
9am
mm
Dir  Spd
km/h
Gust
km/h
Spd
kts
Gust
kts
15/11:30pm 25.4 29.2 22.7 85 1.8 SSW 7 9 4 5 1008.5 1006.4 6.2
15/11:00pm 25.5 28.8 22.6 84 2.0 S 9 13 5 7 1008.4 1006.2 6.2
15/10:30pm 25.9 27.6 23.0 84 2.0 SE 19 24 10 13 1008.3 1006.1 6.2
15/10:00pm 25.6 26.9 22.7 84 2.0 SSE 20 32 11 17 1008.3 1006.1 6.2
15/09:30pm 26.6 28.5 22.0 76 3.1 ESE 15 43 8 23 1008.2 1006.0 6.2
15/09:00pm 27.8 31.9 24.0 80 2.7 NNE 9 11 5 6 1007.2 1005.1 6.2
15/08:30pm 27.8 31.7 23.6 78 2.9 N 9 11 5 6 1006.8 1004.7 6.2
15/08:00pm 28.2 31.9 23.3 75 3.4 N 9 9 5 5 1006.7 1004.6 6.2
15/07:30pm 28.4 32.5 23.3 74 3.5 N 7 9 4 5 1006.5 1004.4 6.2
15/07:00pm 29.1 31.7 22.6 68 4.5 N 13 15 7 8 1006.3 1004.2 6.2
15/06:30pm 28.7 32.1 23.4 73 3.7 NNW 11 17 6 9 1006.2 1004.1 6.2
15/06:00pm 28.4 31.6 23.1 73 3.7 NNW 11 15 6 8 1006.2 1004.1 6.2
15/05:30pm 27.6 31.9 24.2 82 2.4 N 9 13 5 7 1006.2 1004.1 6.2
15/05:03pm 26.3 30.1 23.4 84 2.0 WNW 9 15 5 8 1006.5 1004.4 6.2
15/05:00pm 26.1 30.0 23.6 86 1.7 WSW 9 9 5 5 1006.6 1004.5 6.2
15/04:43pm 25.4 26.7 21.7 80 2.5 SE 17 24 9 13 1007.0 1004.9 4.2
15/04:30pm 26.6 26.7 21.8 75 3.2 E 24 35 13 19 1006.8 1004.7 1.0
15/04:27pm 27.3 27.9 21.3 69 4.0 ESE 20 35 11 19 1006.7 1004.6 0.6
15/04:00pm 32.5 35.8 20.7 49 8.0 SE 4 9 2 5 1006.7 1004.6 0.0
15/03:30pm 31.8 35.6 21.0 52 7.3 SSW 2 13 1 7 1007.2 1005.1 0.0
15/03:00pm 29.3 32.3 22.0 64 5.0 NNE 9 13 5 7 1007.7 1005.6 0.0
15/02:30pm 30.7 32.1 20.3 53 6.9 NNE 13 20 7 11 1008.1 1005.9 0.0
15/02:00pm 31.2 34.0 20.8 54 7.0 ENE 7 11 4 6 1008.6 1006.5 0.0
15/01:30pm 30.7 34.0 21.5 58 6.2 ESE 6 15 3 8 1008.8 1006.7 0.0
15/01:00pm 30.7 33.3 21.2 57 6.4 ENE 9 19 5 10 1008.7 1006.6 0.0
15/12:30pm 31.1 34.3 23.0 62 5.6 NNE 11 19 6 10 1008.8 1006.7 0.0
15/12:00pm 29.4 32.4 21.9 64 5.1 NNE 9 15 5 8 1009.2 1007.1 0.0
15/11:30am 28.3 30.7 21.6 67 4.5 N 11 19 6 10 1009.6 1007.5 0.0
15/11:00am 27.0 28.8 22.6 77 3.0 NNE 17 22 9 12 1010.2 1008.1 0.0
15/10:30am 28.3 31.4 21.1 65 4.8 E 6 13 3 7 1010.3 1008.2 0.0
15/10:16am 27.7 30.8 21.5 69 4.2 E 7 13 4 7 1010.5 1008.4 0.0
15/10:00am 28.1 31.3 21.6 68 4.4 NE 7 17 4 9 1010.5 1008.4 0.0
15/09:54am 28.2 32.3 22.9 73 3.6 E 6 17 3 9 1010.5 1008.4 0.0
15/09:30am 27.0 31.5 22.2 75 3.3 SSE 2 7 1 4 1010.7 1008.6 0.0
15/09:07am 26.4 30.0 22.3 78 2.8 E 7 11 4 6 1010.8 1008.7 0.0
15/09:00am 26.0 29.2 22.3 80 2.5 ENE 9 11 5 6 1010.8 1008.7 21.8
15/08:30am 25.3 28.5 22.4 84 2.0 NNE 9 13 5 7 1010.5 1008.4 21.8
15/08:00am 24.9 29.4 22.2 85 1.8 ENE 2 7 1 4 1009.9 1007.8 21.8
15/07:30am 24.6 28.5 22.5 88 1.4 NE 6 9 3 5 1009.5 1007.4 21.8
15/07:14am 24.4 28.8 22.1 87 1.5 NNE 2 7 1 4 1009.3 1007.2 21.8
15/07:00am 24.5 28.2 22.6 89 1.3 ENE 7 9 4 5 1009.2 1007.1 21.8
15/06:30am 24.2 27.9 22.3 89 1.3 N 6 7 3 4 1008.7 1006.6 21.8
15/06:00am 23.9 27.4 22.2 90 1.1 N 7 11 4 6 1007.7 1005.6 21.8
15/05:38am 23.8 26.2 22.2 91 1.1 NNW 13 17 7 9 1007.4 1005.3 21.8
15/05:30am 23.7 26.0 22.1 91 1.1 N 13 17 7 9 1007.5 1005.4 21.8
15/05:00am 23.5 24.4 21.9 91 1.1 NNE 20 26 11 14 1007.6 1005.5 21.8
15/04:30am 23.6 24.5 22.0 91 1.1 NE 20 26 11 14 1007.7 1005.6 21.8
15/04:00am 23.7 25.6 22.1 91 1.1 NNE 15 19 8 10 1007.9 1005.8 21.6
15/03:37am 23.6 26.2 22.0 91 1.1 NNE 11 15 6 8 1007.9 1005.8 21.6
15/03:30am 23.6 25.9 22.0 91 1.1 NE 13 17 7 9 1007.9 1005.8 21.6
15/03:00am 23.8 26.2 22.2 91 1.1 ENE 13 15 7 8 1007.9 1005.8 21.6
15/02:30am 24.0 25.7 22.4 91 1.1 NE 17 22 9 12 1007.9 1005.8 21.2
15/02:00am 24.0 26.4 22.3 90 1.1 NNW 13 17 7 9 1009.8 1007.7 20.4
15/01:30am 23.8 26.1 22.1 90 1.1 NNE 13 19 7 10 1010.6 1008.5 18.0
15/01:00am 24.0 26.5 22.4 91 1.1 NE 13 19 7 10 1010.8 1008.7 15.0
15/12:30am 23.8 24.8 22.2 91 1.1 E 20 28 11 15 1010.7 1008.6 12.2
15/12:29am 23.8 24.8 22.2 91 1.1 E 20 28 11 15 1010.7 1008.6 12.0
15/12:27am 23.8 24.8 22.2 91 1.1 E 20 28 11 15 1010.7 1008.6 11.8
15/12:00am 24.6 25.3 23.0 91 1.1 ESE 24 30 13 16 1011.1 1009.0 8.4
 
Date/Time
EST
Temp
°C
App
Temp
°C
Dew
Point
°C
Rel
Hum
%
Delta-T
°C
Wind Press
QNH
hPa
Press
MSL
hPa
Rain since
9am
mm
Dir  Spd
km/h
Gust
km/h
Spd
kts
Gust
kts
14/11:51pm 24.6 25.6 22.8 90 1.2 ESE 22 28 12 15 1011.3 1009.2 4.6
14/11:30pm 24.8 25.0 22.7 88 1.4 ESE 26 32 14 17 1011.0 1008.9 1.6
14/11:00pm 25.7 27.7 23.0 85 1.8 E 17 24 9 13 1010.1 1008.0 0.8
14/10:57pm 25.7 27.3 22.8 84 2.0 E 19 26 10 14 1009.9 1007.8 0.8
14/10:30pm 25.9 27.9 23.0 84 2.0 NE 17 24 9 13 1009.1 1007.0 0.8
14/10:00pm 26.2 26.5 22.3 79 2.7 NE 24 30 13 16 1008.5 1006.4 0.6
14/09:30pm 27.7 28.6 22.0 71 3.9 N 20 30 11 16 1007.2 1005.1 0.4
14/09:00pm 28.0 28.4 21.8 69 4.2 NNE 22 30 12 16 1006.8 1004.7 0.4
14/08:30pm 31.5 32.8 20.8 53 7.2 SW 15 28 8 15 1006.9 1004.8 0.4
14/08:00pm 31.6 34.0 22.3 57 6.4 SW 13 24 7 13 1006.4 1004.3 0.4
14/07:30pm 30.8 32.1 21.6 58 6.3 SSE 17 20 9 11 1006.2 1004.1 0.4
14/07:17pm 31.0 31.1 20.3 53 7.2 S 20 30 11 16 1006.2 1004.1 0.2
14/07:00pm 36.1 35.8 17.3 33 12.3 SW 15 19 8 10 1005.9 1003.8 0.0
14/06:30pm 36.5 37.0 16.6 30 12.9 WSW 9 13 5 7 1005.3 1003.2 0.0
14/06:00pm 36.8 36.3 16.9 31 13.0 W 15 22 8 12 1004.9 1002.7 0.0
14/05:30pm 37.3 36.6 17.3 30 13.1 W 17 22 9 12 1004.9 1002.7 0.0
14/05:00pm 37.0 35.8 17.6 32 12.8 W 20 39 11 21 1005.0 1002.8 0.0
14/04:30pm 36.7 36.0 17.3 31 12.7 WNW 17 22 9 12 1005.3 1003.2 0.0
14/04:00pm 37.0 36.8 17.6 32 12.8 W 15 26 8 14 1005.9 1003.8 0.0
14/03:30pm 36.8 37.1 16.9 31 12.9 WNW 11 20 6 11 1006.4 1004.3 0.0
14/03:00pm 37.5 38.0 17.5 30 13.1 NNW 11 19 6 10 1006.6 1004.5 0.0
14/02:30pm 37.3 37.2 17.8 31 12.8 WNW 15 24 8 13 1006.8 1004.7 0.0
14/02:00pm 36.7 36.7 17.3 31 12.7 NW 13 22 7 12 1007.4 1005.3 0.0
14/01:30pm 37.6 38.0 18.1 32 12.9 NW 13 30 7 16 1007.9 1005.8 0.0
14/01:00pm 37.8 36.6 18.3 32 13.0 WNW 22 33 12 18 1008.5 1006.4 0.0
14/12:30pm 36.3 35.8 17.0 32 12.5 WNW 15 26 8 14 1008.9 1006.8 0.0
14/12:00pm 35.9 36.1 17.6 34 12.0 WNW 13 22 7 12 1009.3 1007.2 0.0
14/11:30am 35.8 35.0 17.9 34 11.7 WNW 19 30 10 16 1009.5 1007.4 0.0
14/11:00am 34.0 33.6 18.1 39 10.4 WNW 17 26 9 14 1009.9 1007.8 0.0
14/10:30am 34.4 34.9 19.2 40 10.1 WNW 15 26 8 14 1010.1 1008.0 0.0
14/10:00am 33.1 32.8 19.2 43 9.2 WNW 19 30 10 16 1009.9 1007.8 0.0
14/09:30am 32.5 32.5 19.7 46 8.5 NW 19 28 10 15 1010.3 1008.2 0.0
14/09:00am 30.1 31.4 20.9 57 6.2 NW 15 20 8 11 1010.9 1008.8 0.0
14/08:30am 29.4 30.4 21.1 61 5.6 NNW 17 22 9 12 1011.1 1009.0 0.0
14/08:00am 29.3 30.9 21.5 63 5.3 NNW 15 20 8 11 1011.1 1009.0 0.0
14/07:30am 27.9 30.6 21.4 67 4.4 N 9 13 5 7 1011.0 1008.9 0.0
14/07:00am 27.5 29.9 21.5 70 4.0 N 11 17 6 9 1010.4 1008.3 0.0
14/06:30am 26.9 30.2 21.4 72 3.7 N 6 9 3 5 1009.4 1007.3 0.0
14/06:00am 26.8 29.3 21.1 71 3.8 N 9 11 5 6 1008.7 1006.6 0.0
14/05:30am 27.2 30.2 21.2 69 4.0 NW 7 11 4 6 1008.7 1006.6 0.0
14/05:00am 26.9 29.5 21.2 71 3.8 N 9 13 5 7 1008.5 1006.4 0.0
14/04:30am 26.4 29.0 21.2 73 3.5 N 9 11 5 6 1008.3 1006.1 0.0
14/04:00am 27.0 29.7 21.3 71 3.8 N 9 13 5 7 1008.1 1005.9 0.0
14/03:30am 27.4 29.2 21.2 69 4.2 NNW 13 17 7 9 1008.1 1005.9 0.0
14/03:00am 27.8 29.3 21.3 67 4.4 NW 15 20 8 11 1008.1 1005.9 0.0
14/02:30am 27.7 29.3 21.5 69 4.2 N 15 20 8 11 1008.2 1006.0 0.0
14/02:00am 27.7 29.7 21.5 69 4.2 N 13 17 7 9 1008.2 1006.0 0.0
14/01:30am 28.4 29.2 21.4 66 4.7 NNW 19 22 10 12 1008.5 1006.4 0.0

Other Formats:

Comma delimited format used in spreadsheet applications
http://www.bom.gov.au/fwo/IDQ60801/IDQ60801.94338.axf

JavaScript Object Notation format (JSON) in row-major order
http://www.bom.gov.au/fwo/IDQ60801/IDQ60801.94338.json